createdAt,value
2023-01-28T00:00:46.035Z,18.28
2023-01-28T00:03:11.732Z,18.29
2023-01-28T00:05:37.402Z,18.28
2023-01-28T00:08:03.110Z,18.28
2023-01-28T00:10:28.746Z,18.28
2023-01-28T00:12:54.391Z,18.27
2023-01-28T00:15:20.058Z,18.27
2023-01-28T00:17:45.708Z,18.29
2023-01-28T00:20:11.737Z,18.27
2023-01-28T00:22:37.404Z,18.27
2023-01-28T00:25:03.139Z,18.28
2023-01-28T00:27:28.776Z,18.26
2023-01-28T00:29:54.725Z,18.27
2023-01-28T00:32:20.368Z,18.27
2023-01-28T00:34:46.019Z,18.27
2023-01-28T00:37:11.676Z,18.27
2023-01-28T00:39:37.316Z,18.26
2023-01-28T00:42:03.055Z,18.26
2023-01-28T00:44:28.716Z,18.28
2023-01-28T00:46:54.345Z,18.26
2023-01-28T00:49:20.012Z,18.27
2023-01-28T00:51:48.023Z,18.26
2023-01-28T00:54:13.773Z,18.26
2023-01-28T00:56:39.500Z,18.27
2023-01-28T00:59:05.218Z,18.26
2023-01-28T01:01:30.950Z,18.25
2023-01-28T01:04:01.647Z,18.25
2023-01-28T01:06:29.486Z,18.25
2023-01-28T01:08:55.160Z,18.25
2023-01-28T01:11:20.829Z,18.25
2023-01-28T01:13:51.545Z,18.25
2023-01-28T01:16:17.194Z,18.25
2023-01-28T01:18:43.070Z,18.25
2023-01-28T01:21:13.581Z,18.25
2023-01-28T01:23:39.524Z,18.24
2023-01-28T01:26:05.680Z,18.24
2023-01-28T01:28:31.775Z,18.25
2023-01-28T01:31:02.401Z,18.24
2023-01-28T01:33:29.147Z,18.24
2023-01-28T01:35:55.332Z,18.23
2023-01-28T01:38:21.094Z,18.24
2023-01-28T01:40:46.779Z,18.24
2023-01-28T01:43:18.569Z,18.25
2023-01-28T01:45:47.017Z,18.23
2023-01-28T01:48:14.749Z,18.24
2023-01-28T01:50:50.887Z,18.24
2023-01-28T01:53:17.403Z,18.23
2023-01-28T01:55:45.134Z,18.23
2023-01-28T01:58:14.556Z,18.23
2023-01-28T02:00:41.392Z,18.24
2023-01-28T02:03:08.750Z,18.23
2023-01-28T02:05:34.883Z,18.22
2023-01-28T02:08:21.051Z,18.22
2023-01-28T02:10:51.272Z,18.23
2023-01-28T02:13:18.564Z,18.23
2023-01-28T02:15:45.444Z,18.23
2023-01-28T02:18:11.324Z,18.23
2023-01-28T02:21:09.985Z,18.23
2023-01-28T02:23:54.365Z,18.22
2023-01-28T02:26:29.348Z,18.23
2023-01-28T02:29:20.505Z,18.22
2023-01-28T02:31:53.359Z,18.22
2023-01-28T02:34:40.105Z,18.21
2023-01-28T02:37:30.016Z,18.23
2023-01-28T02:40:00.687Z,18.22
2023-01-28T02:42:28.765Z,18.22
2023-01-28T02:44:54.620Z,18.23
2023-01-28T02:47:40.442Z,18.22
2023-01-28T02:50:11.632Z,18.21
2023-01-28T02:58:00.576Z,18.22
2023-01-28T03:00:51.371Z,18.21
2023-01-28T03:03:24.152Z,18.19
2023-01-28T03:06:09.391Z,18.21
2023-01-28T03:09:04.802Z,18.21
2023-01-28T03:11:53.750Z,18.22
2023-01-28T03:14:40.082Z,18.21
2023-01-28T03:17:29.593Z,18.20
2023-01-28T03:20:15.166Z,18.20
2023-01-28T03:23:03.489Z,18.20
2023-01-28T03:25:49.071Z,18.20
2023-01-28T03:28:37.524Z,18.20
2023-01-28T03:31:27.884Z,18.19
2023-01-28T03:34:13.917Z,18.19
2023-01-28T03:36:54.905Z,18.20
2023-01-28T03:39:24.872Z,18.20
2023-01-28T03:42:08.151Z,18.20
2023-01-28T03:44:54.848Z,18.19
2023-01-28T03:47:24.150Z,18.20
2023-01-28T03:49:51.716Z,18.19
2023-01-28T03:52:19.875Z,18.19
2023-01-28T03:54:47.736Z,18.20
2023-01-28T03:57:14.837Z,18.19
2023-01-28T03:59:40.829Z,18.19
2023-01-28T04:02:06.600Z,18.20
2023-01-28T04:04:32.265Z,18.19
2023-01-28T04:06:58.068Z,18.18
2023-01-28T04:09:24.196Z,18.19
2023-01-28T04:11:50.212Z,18.20
2023-01-28T04:14:17.172Z,18.19
2023-01-28T04:16:43.138Z,18.19
2023-01-28T04:19:09.077Z,18.19
2023-01-28T04:21:35.008Z,18.18
2023-01-28T04:24:01.100Z,18.17
2023-01-28T04:26:27.637Z,18.19
2023-01-28T04:28:53.387Z,18.19
2023-01-28T04:31:19.077Z,18.18
2023-01-28T04:33:44.815Z,18.19
2023-01-28T04:36:10.537Z,18.18
2023-01-28T04:38:36.237Z,18.18
2023-01-28T04:41:01.904Z,18.18
2023-01-28T04:43:27.552Z,18.18
2023-01-28T04:45:53.200Z,18.18
2023-01-28T04:48:18.837Z,18.17
2023-01-28T04:50:44.990Z,18.17
2023-01-28T04:53:10.800Z,18.18
2023-01-28T04:55:36.458Z,18.17
2023-01-28T04:58:02.282Z,18.18
2023-01-28T05:00:27.928Z,18.16
2023-01-28T05:02:53.552Z,18.16
2023-01-28T05:05:19.207Z,18.16
2023-01-28T05:07:50.866Z,18.17
2023-01-28T05:10:16.532Z,18.17
2023-01-28T05:12:43.607Z,18.17
2023-01-28T05:15:09.367Z,18.17
2023-01-28T05:17:35.071Z,18.17
2023-01-28T05:20:00.755Z,18.16
2023-01-28T05:22:26.397Z,18.17
2023-01-28T05:24:52.116Z,18.17
2023-01-28T05:27:17.770Z,18.17
2023-01-28T05:29:43.495Z,18.17
2023-01-28T05:32:09.212Z,18.16
2023-01-28T05:34:34.897Z,18.17
2023-01-28T05:37:00.551Z,18.16
2023-01-28T05:39:26.214Z,18.17
2023-01-28T05:41:51.909Z,18.17
2023-01-28T05:44:17.581Z,18.16
2023-01-28T05:46:45.761Z,18.17
2023-01-28T05:49:12.742Z,18.16
2023-01-28T05:51:39.041Z,18.17
2023-01-28T05:54:05.921Z,18.16
2023-01-28T05:56:31.896Z,18.17
2023-01-28T05:58:57.713Z,18.16
2023-01-28T06:01:23.359Z,18.16
2023-01-28T06:03:49.009Z,18.16
2023-01-28T06:06:14.652Z,18.15
2023-01-28T06:08:40.341Z,18.16
2023-01-28T06:11:06.139Z,18.15
2023-01-28T06:13:31.825Z,18.15
2023-01-28T06:15:57.536Z,18.15
2023-01-28T06:18:23.213Z,18.16
2023-01-28T06:20:49.542Z,18.17
2023-01-28T06:23:15.367Z,18.15
2023-01-28T06:25:41.077Z,18.16
2023-01-28T06:28:06.746Z,18.15
2023-01-28T06:30:32.495Z,18.16
2023-01-28T06:32:58.246Z,18.16
2023-01-28T06:35:24.125Z,18.15
2023-01-28T06:37:49.821Z,18.14
2023-01-28T06:40:15.897Z,18.14
2023-01-28T06:42:41.740Z,18.14
2023-01-28T06:45:07.610Z,18.15
2023-01-28T06:47:33.256Z,18.16
2023-01-28T06:49:58.900Z,18.16
2023-01-28T06:52:24.533Z,18.15
2023-01-28T06:54:50.189Z,18.15
2023-01-28T06:57:15.834Z,18.14
2023-01-28T06:59:41.513Z,18.15
2023-01-28T07:02:09.379Z,18.14
2023-01-28T07:04:35.018Z,18.14
2023-01-28T07:07:00.652Z,18.14
2023-01-28T07:09:26.319Z,18.13
2023-01-28T07:11:51.954Z,18.14
2023-01-28T07:14:17.628Z,18.15
2023-01-28T07:16:43.276Z,18.14
2023-01-28T07:19:08.915Z,18.14
2023-01-28T07:21:34.549Z,18.14
2023-01-28T07:24:00.268Z,18.13
2023-01-28T07:26:25.997Z,18.14
2023-01-28T07:28:51.663Z,18.14
2023-01-28T07:31:17.398Z,18.14
2023-01-28T07:33:43.183Z,18.14
2023-01-28T07:36:08.909Z,18.14
2023-01-28T07:38:34.567Z,18.13
2023-01-28T07:41:00.201Z,18.12
2023-01-28T07:43:25.840Z,18.13
2023-01-28T07:45:51.471Z,18.13
2023-01-28T07:48:17.385Z,18.12
2023-01-28T07:55:26.254Z,18.13
2023-01-28T07:57:53.840Z,18.12
2023-01-28T08:00:20.850Z,18.13
2023-01-28T08:02:48.068Z,18.12
2023-01-28T08:05:16.200Z,18.11
2023-01-28T08:07:41.868Z,18.12
2023-01-28T08:10:08.272Z,18.12
2023-01-28T08:12:33.926Z,18.13
2023-01-28T08:14:59.574Z,18.12
2023-01-28T08:17:25.216Z,18.12
2023-01-28T08:19:50.850Z,18.12
2023-01-28T08:22:16.472Z,18.11
2023-01-28T08:24:42.136Z,18.11
2023-01-28T08:27:07.790Z,18.12
2023-01-28T08:29:33.453Z,18.11
2023-01-28T08:31:59.101Z,18.12
2023-01-28T08:34:24.748Z,18.11
2023-01-28T08:36:50.666Z,18.12
2023-01-28T08:39:16.331Z,18.12
2023-01-28T08:41:41.979Z,18.11
2023-01-28T08:44:07.622Z,18.12
2023-01-28T08:46:33.323Z,18.11
2023-01-28T08:48:59.019Z,18.11
2023-01-28T08:51:24.657Z,18.11
2023-01-28T08:53:50.299Z,18.11
2023-01-28T08:56:15.938Z,18.12
2023-01-28T08:58:41.608Z,18.11
2023-01-28T09:01:07.264Z,18.11
2023-01-28T09:03:33.054Z,18.12
2023-01-28T09:06:01.348Z,18.11
2023-01-28T09:08:27.250Z,18.12
2023-01-28T09:10:55.663Z,18.11
2023-01-28T09:13:21.362Z,18.11
2023-01-28T09:15:47.042Z,18.10
2023-01-28T09:18:12.725Z,18.10
2023-01-28T09:20:38.468Z,18.11
2023-01-28T09:23:04.142Z,18.10
2023-01-28T09:25:29.945Z,18.10
2023-01-28T09:27:56.732Z,18.11
2023-01-28T09:30:22.546Z,18.10
2023-01-28T09:32:50.633Z,18.11
2023-01-28T09:35:17.250Z,18.10
2023-01-28T09:37:43.193Z,18.10
2023-01-28T09:40:30.548Z,18.11
2023-01-28T09:45:42.949Z,18.10
2023-01-28T09:48:14.030Z,18.10
2023-01-28T09:50:42.037Z,18.09
2023-01-28T09:53:12.512Z,18.10
2023-01-28T09:55:41.098Z,18.10
2023-01-28T09:58:11.321Z,18.10
2023-01-28T10:00:42.538Z,18.10
2023-01-28T10:03:22.176Z,18.11
2023-01-28T10:06:07.439Z,18.10
2023-01-28T10:11:38.425Z,18.11
2023-01-28T10:14:10.909Z,18.10
2023-01-28T10:16:50.092Z,18.11
2023-01-28T10:19:22.656Z,18.09
2023-01-28T10:21:52.283Z,18.09
2023-01-28T10:24:26.260Z,18.09
2023-01-28T10:26:52.032Z,18.08
2023-01-28T10:29:21.142Z,18.09
2023-01-28T10:31:55.261Z,18.09
2023-01-28T10:34:21.584Z,18.10
2023-01-28T10:36:47.771Z,18.09
2023-01-28T10:39:15.150Z,18.09
2023-01-28T10:41:52.014Z,18.09
2023-01-28T10:44:31.980Z,18.08
2023-01-28T10:47:01.036Z,18.09
2023-01-28T10:49:28.896Z,18.10
2023-01-28T10:51:54.570Z,18.09
2023-01-28T10:54:23.764Z,18.10
2023-01-28T10:56:52.426Z,18.10
2023-01-28T10:59:26.315Z,18.09
2023-01-28T11:01:56.096Z,18.10
2023-01-28T11:04:24.615Z,18.09
2023-01-28T11:06:51.871Z,18.09
2023-01-28T11:09:22.328Z,18.10
2023-01-28T11:11:47.991Z,18.08
2023-01-28T11:14:23.321Z,18.09
2023-01-28T11:16:50.372Z,18.08
2023-01-28T11:19:18.193Z,18.09
2023-01-28T11:21:48.933Z,18.09
2023-01-28T11:24:19.025Z,18.08
2023-01-28T11:26:48.889Z,18.08
2023-01-28T11:29:24.021Z,18.09
2023-01-28T11:31:49.778Z,18.08
2023-01-28T11:34:17.650Z,18.08
2023-01-28T11:36:52.072Z,18.08
2023-01-28T11:39:25.073Z,18.08
2023-01-28T11:41:51.314Z,18.07
2023-01-28T11:44:23.122Z,18.07
2023-01-28T11:47:29.112Z,18.09
2023-01-28T11:50:06.412Z,18.08
2023-01-28T11:53:06.756Z,18.08
2023-01-28T11:56:12.737Z,18.08
2023-01-28T11:59:03.043Z,18.07
2023-01-28T12:01:42.881Z,18.08
2023-01-28T12:04:48.353Z,18.08
2023-01-28T12:07:48.816Z,18.08
2023-01-28T12:10:45.801Z,18.08
2023-01-28T12:13:50.165Z,18.07
2023-01-28T12:16:23.903Z,18.06
2023-01-28T12:19:26.215Z,18.07
2023-01-28T12:22:25.918Z,18.07
2023-01-28T12:25:31.389Z,18.07
2023-01-28T12:28:35.290Z,18.07
2023-01-28T12:31:13.762Z,18.07
2023-01-28T12:33:51.039Z,18.07
2023-01-28T12:36:41.334Z,18.07
2023-01-28T12:39:19.026Z,18.07
2023-01-28T12:41:53.245Z,18.07
2023-01-28T12:44:24.762Z,18.06
2023-01-28T12:46:55.492Z,18.07
2023-01-28T12:49:26.732Z,18.07
2023-01-28T12:52:04.332Z,18.07
2023-01-28T12:54:40.322Z,18.07
2023-01-28T12:57:08.576Z,18.05
2023-01-28T12:59:42.502Z,18.05
2023-01-28T13:02:18.631Z,18.06
2023-01-28T13:04:53.479Z,18.07
2023-01-28T13:07:25.616Z,18.07
2023-01-28T13:09:54.309Z,18.05
2023-01-28T13:12:21.354Z,18.06
2023-01-28T13:14:47.637Z,18.06
2023-01-28T13:17:30.912Z,18.07
2023-01-28T13:19:57.938Z,18.05
2023-01-28T13:22:29.277Z,18.05
2023-01-28T13:24:55.014Z,18.05
2023-01-28T13:27:24.094Z,18.04
2023-01-28T13:30:00.249Z,18.06
2023-01-28T13:32:30.849Z,18.06
2023-01-28T13:34:59.511Z,18.06
2023-01-28T13:37:31.309Z,18.06
2023-01-28T13:40:03.310Z,18.05
2023-01-28T13:42:30.510Z,18.05
2023-01-28T13:45:18.412Z,18.07
2023-01-28T13:47:47.554Z,18.05
2023-01-28T13:50:19.998Z,18.05
2023-01-28T13:52:52.935Z,18.04
2023-01-28T13:55:41.259Z,18.05
2023-01-28T13:58:26.568Z,18.05
2023-01-28T14:01:11.926Z,18.04
2023-01-28T14:04:03.035Z,18.05
2023-01-28T14:06:51.833Z,18.05
2023-01-28T14:09:35.671Z,18.05
2023-01-28T14:12:38.872Z,18.05
2023-01-28T14:15:14.058Z,18.04
2023-01-28T14:17:45.782Z,18.03
2023-01-28T14:20:20.445Z,18.04
2023-01-28T14:22:47.014Z,18.04
2023-01-28T14:25:16.669Z,18.04
2023-01-28T14:27:46.165Z,18.04
2023-01-28T14:30:38.107Z,18.04
2023-01-28T14:33:09.196Z,18.04
2023-01-28T14:35:39.193Z,18.04
2023-01-28T14:38:12.004Z,18.04
2023-01-28T14:40:38.331Z,18.04
2023-01-28T14:43:07.960Z,18.05
2023-01-28T14:45:57.862Z,18.04
2023-01-28T14:48:50.341Z,18.04
2023-01-28T14:51:29.013Z,18.04
2023-01-28T14:54:18.538Z,18.05
2023-01-28T14:57:04.116Z,18.05
2023-01-28T14:59:41.511Z,18.04
2023-01-28T15:02:21.265Z,18.03
2023-01-28T15:04:47.097Z,18.05
2023-01-28T15:07:18.122Z,18.04
2023-01-28T15:09:44.208Z,18.04
2023-01-28T15:12:10.278Z,18.05
2023-01-28T15:14:35.933Z,18.04
2023-01-28T15:17:02.529Z,18.05
2023-01-28T15:19:31.514Z,18.04
2023-01-28T15:21:59.899Z,18.04
2023-01-28T15:24:25.572Z,18.04
2023-01-28T15:26:51.566Z,18.04
2023-01-28T15:29:23.798Z,18.03
2023-01-28T15:31:50.410Z,18.04
2023-01-28T15:34:18.161Z,18.04
2023-01-28T15:36:44.286Z,18.04
2023-01-28T15:39:18.165Z,18.04
2023-01-28T15:41:48.223Z,18.04
2023-01-28T15:44:34.610Z,18.03
2023-01-28T15:47:02.006Z,18.03
2023-01-28T15:49:34.215Z,18.04
2023-01-28T15:51:59.994Z,18.04
2023-01-28T15:54:26.051Z,18.04
2023-01-28T15:56:51.977Z,18.03
2023-01-28T15:59:27.227Z,18.05
2023-01-28T16:02:16.715Z,18.03
2023-01-28T16:04:42.376Z,18.03
2023-01-28T16:07:08.203Z,18.03
2023-01-28T16:09:34.294Z,18.04
2023-01-28T16:12:02.143Z,18.04
2023-01-28T16:14:41.819Z,18.03
2023-01-28T16:17:07.803Z,18.04
2023-01-28T16:19:39.341Z,18.04
2023-01-28T16:22:06.037Z,18.03
2023-01-28T16:24:35.371Z,18.03
2023-01-28T16:27:04.392Z,18.03
2023-01-28T16:29:31.080Z,18.04
2023-01-28T16:31:58.931Z,18.04
2023-01-28T16:34:26.680Z,18.03
2023-01-28T16:36:55.908Z,18.02
2023-01-28T16:39:21.558Z,18.03
2023-01-28T16:41:48.684Z,18.03
2023-01-28T16:44:15.326Z,18.03
2023-01-28T16:46:41.181Z,18.03
2023-01-28T16:49:07.005Z,18.02
2023-01-28T16:51:33.091Z,18.02
2023-01-28T16:53:58.801Z,18.03
2023-01-28T16:56:45.600Z,18.02
2023-01-28T16:59:12.865Z,18.03
2023-01-28T17:01:39.032Z,18.03
2023-01-28T17:04:10.407Z,18.03
2023-01-28T17:06:37.593Z,18.02
2023-01-28T17:09:04.794Z,18.03
2023-01-28T17:11:31.029Z,18.03
2023-01-28T17:13:56.696Z,18.01
2023-01-28T17:16:22.413Z,18.02
2023-01-28T17:18:50.241Z,18.02
2023-01-28T17:21:15.904Z,18.02
2023-01-28T17:23:41.577Z,18.03
2023-01-28T17:26:08.534Z,18.02
2023-01-28T17:28:34.351Z,18.00
2023-01-28T17:31:04.093Z,18.01
2023-01-28T17:33:29.828Z,18.02
2023-01-28T17:35:57.808Z,18.02
2023-01-28T17:38:23.607Z,18.01
2023-01-28T17:40:49.252Z,18.02
2023-01-28T17:43:14.939Z,18.02
2023-01-28T17:45:40.771Z,18.02
2023-01-28T17:48:06.970Z,18.00
2023-01-28T17:50:32.814Z,18.02
2023-01-28T17:52:58.587Z,18.01
2023-01-28T17:55:24.637Z,18.02
2023-01-28T17:57:50.469Z,18.02
2023-01-28T18:00:16.765Z,18.03
2023-01-28T18:02:42.433Z,18.01
2023-01-28T18:05:08.432Z,18.02
2023-01-28T18:07:34.327Z,18.02
2023-01-28T18:09:59.978Z,18.01
2023-01-28T18:12:25.645Z,18.01
2023-01-28T18:14:51.281Z,18.01
2023-01-28T18:17:16.950Z,18.02
2023-01-28T18:19:42.622Z,18.00
2023-01-28T18:22:08.269Z,18.00
2023-01-28T18:24:34.053Z,18.01
2023-01-28T18:26:59.807Z,18.00
2023-01-28T18:29:27.012Z,18.01
2023-01-28T18:31:54.368Z,18.00
2023-01-28T18:34:21.637Z,18.01
2023-01-28T18:36:48.756Z,18.02
2023-01-28T18:39:15.388Z,18.01
2023-01-28T18:41:41.245Z,18.02
2023-01-28T18:44:08.187Z,18.01
2023-01-28T18:46:33.825Z,18.01
2023-01-28T18:48:59.466Z,18.01
2023-01-28T18:51:30.471Z,18.01
2023-01-28T18:53:58.414Z,18.00
2023-01-28T18:56:24.660Z,18.01
2023-01-28T18:58:56.009Z,18.01
2023-01-28T19:01:21.844Z,18.01
2023-01-28T19:03:47.509Z,18.01
2023-01-28T19:06:15.318Z,18.00
2023-01-28T19:08:41.006Z,18.01
2023-01-28T19:11:06.722Z,18.01
2023-01-28T19:13:32.643Z,17.99
2023-01-28T19:16:02.424Z,18.00
2023-01-28T19:18:28.243Z,18.00
2023-01-28T19:20:53.892Z,18.00
2023-01-28T19:23:19.602Z,18.02
2023-01-28T19:25:45.264Z,17.99
2023-01-28T19:28:10.915Z,18.01
2023-01-28T19:30:37.035Z,18.01
2023-01-28T19:33:03.817Z,18.02
2023-01-28T19:35:29.484Z,18.00
2023-01-28T19:37:55.331Z,18.02
2023-01-28T19:40:21.082Z,18.00
2023-01-28T19:42:46.854Z,18.00
2023-01-28T19:45:12.830Z,18.00
2023-01-28T19:47:39.214Z,18.01
2023-01-28T19:50:05.471Z,18.01
2023-01-28T19:52:31.242Z,18.00
2023-01-28T19:54:56.889Z,18.00
2023-01-28T19:57:22.536Z,18.00
2023-01-28T19:59:48.296Z,17.99
2023-01-28T20:02:13.984Z,18.00
2023-01-28T20:04:51.341Z,18.00
2023-01-28T20:07:20.684Z,17.99
2023-01-28T20:09:46.427Z,17.99
2023-01-28T20:12:14.071Z,18.01
2023-01-28T20:14:40.085Z,18.00
2023-01-28T20:17:05.779Z,18.00
2023-01-28T20:19:32.933Z,18.00
2023-01-28T20:21:58.572Z,17.98
2023-01-28T20:24:24.291Z,17.99
2023-01-28T20:26:49.934Z,18.00
2023-01-28T20:29:17.547Z,18.00
2023-01-28T20:31:43.588Z,17.99
2023-01-28T20:34:15.277Z,18.00
2023-01-28T20:36:41.180Z,17.99
2023-01-28T20:39:07.078Z,17.99
2023-01-28T20:41:32.890Z,17.99
2023-01-28T20:43:58.534Z,17.99
2023-01-28T20:46:28.659Z,17.99
2023-01-28T20:48:55.256Z,17.98
2023-01-28T20:51:23.162Z,17.99
2023-01-28T20:53:49.591Z,17.99
2023-01-28T20:56:19.520Z,17.99
2023-01-28T20:58:46.259Z,17.98
2023-01-28T21:01:19.513Z,17.99
2023-01-28T21:03:45.866Z,17.99
2023-01-28T21:06:11.533Z,17.98
2023-01-28T21:08:37.179Z,17.99
2023-01-28T21:11:04.048Z,17.98
2023-01-28T21:13:29.691Z,17.98
2023-01-28T21:15:56.522Z,17.99
2023-01-28T21:18:22.749Z,17.99
2023-01-28T21:20:48.474Z,17.98
2023-01-28T21:23:14.930Z,17.99
2023-01-28T21:25:42.552Z,17.99
2023-01-28T21:28:10.061Z,17.99
2023-01-28T21:30:35.838Z,17.99
2023-01-28T21:33:01.525Z,17.97
2023-01-28T21:35:27.296Z,17.99
2023-01-28T21:37:52.939Z,17.98
2023-01-28T21:40:18.873Z,17.98
2023-01-28T21:42:44.907Z,17.98
2023-01-28T21:45:10.878Z,17.98
2023-01-28T21:47:36.513Z,17.98
2023-01-28T21:50:02.461Z,17.98
2023-01-28T21:52:28.155Z,17.99
2023-01-28T21:54:53.860Z,17.99
2023-01-28T21:57:19.495Z,17.98
2023-01-28T21:59:45.143Z,17.98
2023-01-28T22:02:12.762Z,17.99
2023-01-28T22:04:40.849Z,17.98
2023-01-28T22:07:09.215Z,17.98
2023-01-28T22:09:35.367Z,17.99
2023-01-28T22:12:02.836Z,17.98
2023-01-28T22:14:28.837Z,17.98
2023-01-28T22:16:54.619Z,17.97
2023-01-28T22:19:20.312Z,17.98
2023-01-28T22:21:46.067Z,17.98
2023-01-28T22:24:14.481Z,17.99
2023-01-28T22:26:40.503Z,17.98
2023-01-28T22:29:06.760Z,17.98
2023-01-28T22:31:33.123Z,17.98
2023-01-28T22:33:58.867Z,17.97
2023-01-28T22:36:24.513Z,17.98
2023-01-28T22:38:50.286Z,17.98
2023-01-28T22:41:18.352Z,17.97
2023-01-28T22:43:45.201Z,17.98
2023-01-28T22:46:11.284Z,17.98
2023-01-28T22:48:38.308Z,17.98
2023-01-28T22:51:06.546Z,17.97
2023-01-28T22:53:32.961Z,17.97
2023-01-28T22:55:59.834Z,17.98
2023-01-28T22:58:25.658Z,17.98
2023-01-28T23:00:51.738Z,17.97
2023-01-28T23:03:17.696Z,17.98
2023-01-28T23:05:43.946Z,17.98
2023-01-28T23:08:09.826Z,17.97
2023-01-28T23:10:36.915Z,17.98
2023-01-28T23:13:02.603Z,17.97
2023-01-28T23:15:48.163Z,17.97
2023-01-28T23:18:38.744Z,17.98
2023-01-28T23:21:33.335Z,17.96
2023-01-28T23:24:19.024Z,17.95
2023-01-28T23:26:45.841Z,17.97
2023-01-28T23:29:11.575Z,17.98
2023-01-28T23:31:40.376Z,17.98
2023-01-28T23:34:06.618Z,17.98
2023-01-28T23:36:32.478Z,17.97
2023-01-28T23:38:58.106Z,17.96
2023-01-28T23:41:23.745Z,17.97
2023-01-28T23:43:49.375Z,17.97
2023-01-28T23:46:15.136Z,17.96
2023-01-28T23:48:41.505Z,17.96
2023-01-28T23:51:08.591Z,17.96
2023-01-28T23:53:34.605Z,17.97
2023-01-28T23:56:00.318Z,17.96
2023-01-28T23:58:42.337Z,17.97
